Time;durP1;ratioP1;P1;durP2;ratioP2;P2;SDS_P1;SDS_P2;PMS_P1;PMS_P2;Temp;Humidity;BMP_temperature;BMP_pressure;BME280_temperature;BME280_humidity;BME280_pressure;Samples;Min_cycle;Max_cycle;Signal;HPM_P1;HPM_P2
2023/01/14 00:01:18;;;;;;;1.15;0.93;;;18.30;71.90;;;;;;5066894;28;20528;-15
2023/01/14 00:03:44;;;;;;;1.38;1.10;;;18.40;71.90;;;;;;5072549;28;20036;-15
2023/01/14 00:06:11;;;;;;;1.65;1.30;;;18.40;71.40;;;;;;5074304;28;20098;-16
2023/01/14 00:08:37;;;;;;;1.50;1.40;;;18.40;71.50;;;;;;5064424;28;20069;-17
2023/01/14 00:11:04;;;;;;;1.30;1.00;;;18.30;71.70;;;;;;5076652;28;20052;-14
2023/01/14 00:13:34;;;;;;;1.42;1.30;;;18.40;71.20;;;;;;5078073;28;20032;-15
2023/01/14 00:16:00;;;;;;;1.40;1.00;;;18.40;71.30;;;;;;5075402;28;20083;-16
2023/01/14 00:18:26;;;;;;;1.23;1.13;;;18.40;71.10;;;;;;5068316;28;20044;-13
2023/01/14 00:21:05;;;;;;;1.05;0.95;;;18.50;70.90;;;;;;5069295;28;20037;-15
2023/01/14 00:23:31;;;;;;;1.48;1.02;;;18.50;70.70;;;;;;5073518;28;20044;-16
2023/01/14 00:26:13;;;;;;;1.10;1.00;;;18.50;70.90;;;;;;5072150;28;20527;-19
2023/01/14 00:28:39;;;;;;;1.13;0.80;;;18.50;70.50;;;;;;5071176;28;20029;-16
2023/01/14 00:31:16;;;;;;;1.33;1.00;;;18.50;70.60;;;;;;5070112;28;20038;-15
2023/01/14 00:33:42;;;;;;;1.02;0.93;;;18.50;70.20;;;;;;5064525;28;20041;-17
2023/01/14 00:36:09;;;;;;;1.00;0.70;;;18.60;70.20;;;;;;5070088;28;20411;-22
2023/01/14 00:38:34;;;;;;;0.90;0.80;;;18.60;70.20;;;;;;5074166;28;20452;-15
2023/01/14 00:41:05;;;;;;;1.48;0.95;;;18.60;70.00;;;;;;5074363;28;20192;-15
2023/01/14 00:43:30;;;;;;;1.10;1.00;;;18.50;70.30;;;;;;5073997;28;20044;-16
2023/01/14 00:45:56;;;;;;;0.82;0.80;;;18.40;70.40;;;;;;5070231;28;20212;-16
2023/01/14 00:48:21;;;;;;;1.30;0.70;;;18.50;70.30;;;;;;5076071;28;20051;-21
2023/01/14 00:50:47;;;;;;;1.00;0.90;;;18.60;70.00;;;;;;5074303;28;20017;-16
2023/01/14 00:53:13;;;;;;;1.20;0.95;;;18.40;70.20;;;;;;5074023;28;20032;-16
2023/01/14 00:55:38;;;;;;;0.90;0.73;;;18.50;70.00;;;;;;5068310;28;20500;-16
2023/01/14 00:58:04;;;;;;;1.08;0.98;;;18.50;70.10;;;;;;5063200;28;20091;-15
2023/01/14 01:00:29;;;;;;;0.73;0.73;;;18.50;70.10;;;;;;5073446;28;20032;-14
2023/01/14 01:02:57;;;;;;;0.82;0.73;;;18.50;70.00;;;;;;5070095;28;20184;-14
2023/01/14 01:05:23;;;;;;;1.05;0.68;;;18.40;70.10;;;;;;5075332;28;20024;-14
2023/01/14 01:07:48;;;;;;;1.38;1.05;;;18.40;70.00;;;;;;5072008;28;20059;-14
2023/01/14 01:10:14;;;;;;;1.40;0.80;;;18.50;70.10;;;;;;5068804;28;20136;-15
2023/01/14 01:12:39;;;;;;;1.65;1.00;;;18.40;70.00;;;;;;5073126;28;20047;-16
2023/01/14 01:15:06;;;;;;;2.05;0.85;;;18.30;70.40;;;;;;5074631;28;20044;-15
2023/01/14 01:17:31;;;;;;;0.70;0.70;;;18.30;70.60;;;;;;5071799;28;20044;-16
2023/01/14 01:19:57;;;;;;;0.75;0.70;;;18.30;70.60;;;;;;5077282;28;20056;-13
2023/01/14 01:22:22;;;;;;;1.48;0.95;;;18.30;70.40;;;;;;5071990;28;20083;-16
2023/01/14 01:24:50;;;;;;;1.40;1.00;;;18.30;70.50;;;;;;5068869;28;20032;-21
2023/01/14 01:27:15;;;;;;;1.00;0.88;;;18.30;70.30;;;;;;5060060;28;20067;-14
2023/01/14 01:29:41;;;;;;;1.30;0.82;;;18.40;70.40;;;;;;5062194;28;22067;-14
2023/01/14 01:32:06;;;;;;;1.00;0.90;;;18.30;70.40;;;;;;5065024;28;20047;-14
2023/01/14 01:34:32;;;;;;;1.08;0.80;;;18.30;70.50;;;;;;5067865;28;20036;-14
2023/01/14 01:36:58;;;;;;;0.75;0.75;;;18.20;70.60;;;;;;5071859;28;20048;-14
2023/01/14 01:39:23;;;;;;;1.58;0.88;;;18.20;71.00;;;;;;5072653;28;20147;-14
2023/01/14 01:41:49;;;;;;;0.70;0.60;;;18.40;70.30;;;;;;5075064;28;20036;-15
2023/01/14 01:44:14;;;;;;;0.93;0.90;;;18.30;70.40;;;;;;5070255;28;20083;-13
2023/01/14 01:46:40;;;;;;;0.80;0.70;;;18.20;70.70;;;;;;5071581;28;20102;-14
2023/01/14 01:49:11;;;;;;;1.30;0.80;;;18.20;70.90;;;;;;5074967;28;20072;-14
2023/01/14 01:51:55;;;;;;;0.80;0.70;;;18.20;70.60;;;;;;5045796;28;20397;-16
2023/01/14 01:54:22;;;;;;;0.70;0.70;;;18.10;70.80;;;;;;5069316;28;20077;-13
2023/01/14 01:56:48;;;;;;;1.20;0.80;;;18.20;70.70;;;;;;5043442;28;20056;-14
2023/01/14 01:59:19;;;;;;;0.80;0.70;;;18.10;70.90;;;;;;5076481;28;20502;-13
2023/01/14 02:01:44;;;;;;;1.10;0.80;;;18.30;70.60;;;;;;5047736;28;20037;-19
2023/01/14 02:04:11;;;;;;;1.13;0.88;;;18.30;70.40;;;;;;5065318;28;20044;-13
2023/01/14 02:06:37;;;;;;;1.38;0.88;;;18.20;70.30;;;;;;5064335;28;20040;-20
2023/01/14 02:09:02;;;;;;;1.20;0.77;;;18.30;70.40;;;;;;5070801;28;20124;-15
2023/01/14 02:11:58;;;;;;;0.98;0.65;;;18.30;70.40;;;;;;5070669;28;20513;-16
2023/01/14 02:14:32;;;;;;;1.23;1.13;;;18.20;70.70;;;;;;5076361;28;20037;-13
2023/01/14 02:17:09;;;;;;;0.90;0.80;;;18.10;70.40;;;;;;5064346;28;20074;-15
2023/01/14 02:20:10;;;;;;;0.60;0.60;;;18.10;70.50;;;;;;5035288;28;20035;-14
2023/01/14 02:22:47;;;;;;;1.00;0.80;;;18.20;70.40;;;;;;5069402;28;20047;-14
2023/01/14 02:25:41;;;;;;;1.75;0.80;;;18.20;70.70;;;;;;5073909;28;20123;-19
2023/01/14 02:28:41;;;;;;;1.00;0.75;;;18.20;70.70;;;;;;5051711;28;20098;-13
2023/01/14 02:31:21;;;;;;;1.13;0.70;;;18.20;70.50;;;;;;5074774;28;20072;-13
2023/01/14 02:33:53;;;;;;;1.42;0.75;;;18.20;70.30;;;;;;5074197;28;20043;-14
2023/01/14 02:36:32;;;;;;;1.05;0.80;;;18.10;70.50;;;;;;5048333;28;20048;-14
2023/01/14 02:39:10;;;;;;;1.40;0.80;;;18.10;70.70;;;;;;5051165;28;20032;-15
2023/01/14 02:45:03;;;;;;;1.63;0.70;;;18.10;70.70;;;;;;5055393;28;20051;-13
2023/01/14 02:47:29;;;;;;;1.25;0.82;;;18.10;71.50;;;;;;5064131;28;20090;-14
2023/01/14 02:49:55;;;;;;;1.67;0.80;;;18.10;70.80;;;;;;5065021;28;20048;-20
2023/01/14 02:52:21;;;;;;;1.10;0.70;;;18.10;70.80;;;;;;5066443;28;20040;-18
2023/01/14 02:54:57;;;;;;;0.68;0.55;;;18.10;70.90;;;;;;5076478;28;20032;-14
2023/01/14 02:57:44;;;;;;;0.65;0.60;;;18.00;71.00;;;;;;5067533;28;20040;-22
2023/01/14 03:00:38;;;;;;;0.90;0.70;;;18.00;71.10;;;;;;5069181;28;20025;-14
2023/01/14 03:03:34;;;;;;;0.88;0.57;;;18.00;70.90;;;;;;5062667;28;20047;-14
2023/01/14 03:06:11;;;;;;;0.88;0.77;;;18.10;70.90;;;;;;5073864;28;20211;-14
2023/01/14 03:08:56;;;;;;;1.65;0.65;;;18.00;71.00;;;;;;5067206;28;20036;-14
2023/01/14 03:11:21;;;;;;;0.75;0.75;;;18.00;71.00;;;;;;5064562;28;20098;-14
2023/01/14 03:13:52;;;;;;;1.25;0.70;;;18.00;70.90;;;;;;5066689;28;20040;-13
2023/01/14 03:16:33;;;;;;;1.23;0.52;;;18.00;71.00;;;;;;5065233;28;20082;-16
2023/01/14 03:19:04;;;;;;;0.68;0.45;;;18.00;71.10;;;;;;5068793;28;20041;-16
2023/01/14 03:21:34;;;;;;;0.88;0.70;;;17.90;71.20;;;;;;5074426;28;20051;-13
2023/01/14 03:24:04;;;;;;;0.70;0.63;;;18.00;71.10;;;;;;5066493;28;20261;-14
2023/01/14 03:26:31;;;;;;;0.65;0.40;;;18.00;70.90;;;;;;5068956;28;20624;-21
2023/01/14 03:28:56;;;;;;;1.80;0.65;;;18.10;71.00;;;;;;5059822;28;20048;-15
2023/01/14 03:31:25;;;;;;;2.38;0.63;;;18.20;70.80;;;;;;5066317;28;20674;-15
2023/01/14 03:34:01;;;;;;;0.80;0.70;;;18.10;70.90;;;;;;5080677;28;20028;-13
2023/01/14 03:36:28;;;;;;;0.68;0.57;;;18.10;70.90;;;;;;5053920;28;20959;-14
2023/01/14 03:38:58;;;;;;;0.55;0.50;;;18.00;71.00;;;;;;5066050;28;20040;-14
2023/01/14 03:44:19;;;;;;;3.28;1.20;;;17.90;71.20;;;;;;5082670;28;20082;-14
2023/01/14 03:46:45;;;;;;;1.48;0.68;;;18.00;71.00;;;;;;5060092;28;20124;-13
2023/01/14 03:49:10;;;;;;;0.60;0.60;;;18.00;71.20;;;;;;5066271;28;20124;-15
2023/01/14 03:51:57;;;;;;;0.82;0.60;;;17.90;71.20;;;;;;5084638;28;20040;-14
2023/01/14 03:54:27;;;;;;;1.20;0.80;;;17.90;71.10;;;;;;5084176;28;20030;-17
2023/01/14 03:57:06;;;;;;;2.05;0.88;;;17.80;71.40;;;;;;5075538;28;20038;-16
2023/01/14 03:59:40;;;;;;;3.58;0.85;;;17.90;71.20;;;;;;5065980;28;20040;-14
2023/01/14 04:02:05;;;;;;;0.70;0.70;;;17.90;71.90;;;;;;5063672;28;20050;-15
2023/01/14 04:04:31;;;;;;;1.00;0.50;;;17.80;71.50;;;;;;5073803;28;20131;-14
2023/01/14 04:06:57;;;;;;;0.60;0.60;;;17.80;71.70;;;;;;5063834;28;20040;-15
2023/01/14 04:09:22;;;;;;;1.08;0.70;;;17.80;71.50;;;;;;5061442;28;20566;-14
2023/01/14 04:11:48;;;;;;;0.68;0.60;;;17.90;71.50;;;;;;5073959;28;20493;-14
2023/01/14 04:16:58;;;;;;;0.65;0.50;;;17.80;71.60;;;;;;5074288;28;20582;-14
2023/01/14 04:19:23;;;;;;;0.80;0.68;;;17.90;71.70;;;;;;5078122;28;20029;-14
2023/01/14 04:21:49;;;;;;;1.08;0.68;;;17.90;71.50;;;;;;5072460;28;20072;-13
2023/01/14 04:24:14;;;;;;;0.85;0.50;;;17.90;71.50;;;;;;5078254;28;20481;-14
2023/01/14 04:26:40;;;;;;;0.77;0.60;;;17.90;71.50;;;;;;5073254;28;20041;-14
2023/01/14 04:29:06;;;;;;;1.23;0.70;;;17.90;71.70;;;;;;5069118;28;20033;-14
2023/01/14 04:31:31;;;;;;;1.33;0.73;;;17.80;71.80;;;;;;5069884;28;20512;-15
2023/01/14 04:33:57;;;;;;;0.90;0.70;;;17.80;71.70;;;;;;5068117;28;20037;-16
2023/01/14 04:36:22;;;;;;;0.80;0.60;;;17.80;71.70;;;;;;5072611;28;20052;-21
2023/01/14 04:38:48;;;;;;;0.77;0.60;;;17.90;71.70;;;;;;5074965;28;20044;-14
2023/01/14 04:43:59;;;;;;;1.75;0.60;;;17.90;71.60;;;;;;5072405;28;20059;-14
2023/01/14 04:46:25;;;;;;;0.85;0.60;;;17.80;71.80;;;;;;5044385;28;21001;-15
2023/01/14 04:48:50;;;;;;;0.65;0.40;;;17.80;71.90;;;;;;5047224;28;20754;-14
2023/01/14 04:51:16;;;;;;;0.70;0.50;;;17.80;72.00;;;;;;5045837;28;20041;-14
2023/01/14 04:53:41;;;;;;;0.90;0.47;;;17.80;71.90;;;;;;5047065;28;20457;-15
2023/01/14 04:56:07;;;;;;;0.60;0.60;;;17.80;71.70;;;;;;5044976;28;20029;-13
2023/01/14 04:58:33;;;;;;;1.45;0.50;;;17.80;71.80;;;;;;5044404;28;20052;-16
2023/01/14 05:00:59;;;;;;;1.08;0.50;;;17.80;71.80;;;;;;5041177;28;20037;-14
2023/01/14 05:03:25;;;;;;;1.70;0.52;;;17.80;72.10;;;;;;5027047;28;20544;-16
2023/01/14 05:05:51;;;;;;;0.40;0.35;;;17.70;72.10;;;;;;5043052;28;20037;-14
2023/01/14 05:08:16;;;;;;;0.43;0.32;;;17.80;71.90;;;;;;5042382;28;20053;-14
2023/01/14 05:10:42;;;;;;;0.63;0.40;;;17.80;72.10;;;;;;5045782;28;20513;-14
2023/01/14 05:13:07;;;;;;;1.23;0.50;;;17.80;72.00;;;;;;5045199;28;20049;-13
2023/01/14 05:15:38;;;;;;;0.57;0.45;;;17.70;72.20;;;;;;5044733;28;20064;-13
2023/01/14 05:18:04;;;;;;;0.40;0.28;;;17.80;72.30;;;;;;5044602;28;20053;-14
2023/01/14 05:20:29;;;;;;;0.55;0.50;;;17.80;72.10;;;;;;5045106;28;20095;-15
2023/01/14 05:23:03;;;;;;;0.50;0.50;;;17.80;72.10;;;;;;5044109;28;20049;-14
2023/01/14 05:25:29;;;;;;;0.93;0.50;;;17.70;72.10;;;;;;5044406;28;20048;-16
2023/01/14 05:27:59;;;;;;;1.10;0.45;;;17.70;73.00;;;;;;5044785;28;20077;-14
2023/01/14 05:30:25;;;;;;;0.40;0.38;;;17.70;72.10;;;;;;5042099;28;20041;-13
2023/01/14 05:32:50;;;;;;;0.50;0.50;;;17.80;72.10;;;;;;5040979;28;20052;-15
2023/01/14 05:35:17;;;;;;;0.43;0.30;;;17.90;71.80;;;;;;5036484;28;20068;-15
2023/01/14 05:37:43;;;;;;;1.02;0.50;;;17.90;71.70;;;;;;5038317;28;20064;-16
2023/01/14 05:40:09;;;;;;;0.38;0.30;;;17.80;71.70;;;;;;5042900;28;20510;-18
2023/01/14 05:48:03;;;;;;;0.40;0.32;;;17.80;71.90;;;;;;5070598;28;20129;-14
2023/01/14 05:50:29;;;;;;;0.20;0.20;;;17.80;71.70;;;;;;5080628;28;20075;-21
2023/01/14 05:52:55;;;;;;;3.30;0.40;;;17.80;71.80;;;;;;5076114;28;20068;-13
2023/01/14 05:55:20;;;;;;;0.47;0.47;;;17.80;71.80;;;;;;5082162;28;20044;-13
2023/01/14 05:57:46;;;;;;;0.40;0.30;;;17.80;72.10;;;;;;5079011;28;20076;-13
2023/01/14 06:06:20;;;;;;;1.65;0.20;;;17.70;72.20;;;;;;5069734;28;20045;-14
2023/01/14 06:08:26;;;;;;;3.55;0.40;;;17.80;72.20;;;;;;5078515;28;20456;-13
2023/01/14 06:10:52;;;;;;;1.45;0.30;;;17.80;72.20;;;;;;5066282;28;20049;-14
2023/01/14 06:13:17;;;;;;;0.68;0.30;;;17.90;72.00;;;;;;5075632;28;20048;-13
2023/01/14 06:15:45;;;;;;;0.40;0.40;;;17.80;72.20;;;;;;5079160;28;20044;-15
2023/01/14 06:18:15;;;;;;;0.40;0.35;;;17.80;72.40;;;;;;5071604;28;20132;-16
2023/01/14 06:20:43;;;;;;;0.40;0.20;;;17.70;72.30;;;;;;5079809;28;20048;-13
2023/01/14 06:23:09;;;;;;;1.83;0.35;;;17.70;72.60;;;;;;5079998;28;20044;-14
2023/01/14 06:25:35;;;;;;;0.68;0.28;;;17.80;72.40;;;;;;5072845;28;20044;-14
2023/01/14 06:28:00;;;;;;;0.70;0.40;;;17.80;72.40;;;;;;5056134;28;20529;-14
2023/01/14 06:30:29;;;;;;;0.32;0.20;;;17.80;72.40;;;;;;5073678;28;20072;-13
2023/01/14 06:32:55;;;;;;;0.30;0.30;;;17.80;72.40;;;;;;5074786;28;20054;-13
2023/01/14 06:35:21;;;;;;;0.50;0.32;;;17.70;72.50;;;;;;5080499;28;20040;-13
2023/01/14 06:37:46;;;;;;;1.35;0.30;;;17.80;72.40;;;;;;5069271;28;20552;-14
2023/01/14 06:40:13;;;;;;;0.52;0.20;;;17.70;72.30;;;;;;5076140;28;20048;-14
2023/01/14 06:42:40;;;;;;;0.30;0.25;;;17.70;72.60;;;;;;5072545;28;20048;-16
2023/01/14 06:45:09;;;;;;;1.05;0.20;;;17.70;72.30;;;;;;5050629;28;20041;-15
2023/01/14 06:47:34;;;;;;;1.00;0.40;;;17.80;72.00;;;;;;5050901;28;20053;-15
2023/01/14 06:50:00;;;;;;;0.43;0.25;;;17.80;72.00;;;;;;5054186;28;20040;-16
2023/01/14 06:52:26;;;;;;;0.57;0.20;;;17.80;72.00;;;;;;5057780;28;20048;-15
2023/01/14 06:54:55;;;;;;;0.82;0.28;;;17.80;71.90;;;;;;5049048;28;20074;-16
2023/01/14 06:57:22;;;;;;;0.30;0.20;;;17.80;72.10;;;;;;5054472;28;20695;-15
2023/01/14 06:59:47;;;;;;;0.30;0.30;;;17.70;72.20;;;;;;5055863;28;20049;-16
2023/01/14 07:02:13;;;;;;;0.40;0.30;;;17.70;72.10;;;;;;5060173;28;20037;-16
2023/01/14 07:04:38;;;;;;;0.40;0.30;;;17.70;72.00;;;;;;5047869;28;20132;-29
2023/01/14 07:07:04;;;;;;;0.45;0.40;;;17.80;72.10;;;;;;5050649;28;20562;-19
2023/01/14 07:09:30;;;;;;;0.40;0.25;;;17.80;72.90;;;;;;5056360;28;20041;-18
2023/01/14 07:11:55;;;;;;;0.40;0.22;;;17.80;72.10;;;;;;5051993;28;20410;-17
2023/01/14 07:14:21;;;;;;;0.32;0.32;;;17.80;72.10;;;;;;5053929;28;20039;-16
2023/01/14 07:16:46;;;;;;;1.42;0.60;;;17.80;72.10;;;;;;5052470;28;20517;-15
2023/01/14 07:19:12;;;;;;;0.85;0.40;;;17.80;72.40;;;;;;5048075;28;20075;-16
2023/01/14 07:21:38;;;;;;;0.85;0.40;;;17.80;72.10;;;;;;5055885;28;20033;-18
2023/01/14 07:24:04;;;;;;;0.52;0.30;;;17.80;72.10;;;;;;5049193;28;20039;-16
2023/01/14 07:26:30;;;;;;;0.40;0.30;;;17.80;72.10;;;;;;5054679;28;20055;-17
2023/01/14 07:28:55;;;;;;;0.40;0.32;;;17.70;72.20;;;;;;5051810;28;20037;-16
2023/01/14 07:31:21;;;;;;;0.68;0.30;;;17.70;72.20;;;;;;5049479;28;20040;-16
2023/01/14 07:33:47;;;;;;;0.43;0.28;;;17.80;72.10;;;;;;5054406;28;20040;-16
2023/01/14 07:36:12;;;;;;;0.52;0.20;;;17.80;72.00;;;;;;5049834;28;20144;-15
2023/01/14 07:38:38;;;;;;;1.00;0.25;;;17.80;72.10;;;;;;5046541;28;20502;-15
2023/01/14 07:41:18;;;;;;;0.68;0.40;;;17.80;72.00;;;;;;5051134;28;20415;-14
2023/01/14 07:43:44;;;;;;;1.90;0.30;;;17.80;72.00;;;;;;5028496;28;20140;-15
2023/01/14 07:46:09;;;;;;;0.22;0.17;;;17.80;72.10;;;;;;5068370;28;20214;-15
2023/01/14 07:48:35;;;;;;;0.30;0.20;;;17.70;72.30;;;;;;5070013;28;20493;-17
2023/01/14 07:51:04;;;;;;;0.30;0.20;;;17.70;72.30;;;;;;5067091;28;20044;-15
2023/01/14 07:53:30;;;;;;;0.38;0.30;;;17.70;72.30;;;;;;5069711;28;20108;-18
2023/01/14 07:55:56;;;;;;;0.90;0.28;;;17.70;72.30;;;;;;5072649;28;20127;-15
2023/01/14 07:58:23;;;;;;;0.52;0.30;;;17.70;72.40;;;;;;5066488;28;20067;-14
2023/01/14 08:00:48;;;;;;;0.40;0.20;;;17.80;72.10;;;;;;5070781;28;20048;-15
2023/01/14 08:03:14;;;;;;;0.38;0.30;;;17.80;72.10;;;;;;5074731;28;20036;-13
2023/01/14 08:05:40;;;;;;;0.68;0.40;;;17.80;72.00;;;;;;5068646;28;20062;-17
2023/01/14 08:08:05;;;;;;;0.40;0.17;;;17.90;71.90;;;;;;5032388;28;20036;-21
2023/01/14 08:10:31;;;;;;;0.95;0.40;;;17.80;71.90;;;;;;5073277;28;20048;-15
2023/01/14 08:12:56;;;;;;;0.60;0.50;;;17.80;72.10;;;;;;5078365;28;20036;-15
2023/01/14 08:15:23;;;;;;;0.70;0.30;;;17.80;72.30;;;;;;5077095;28;20561;-17
2023/01/14 08:17:48;;;;;;;2.33;0.40;;;17.80;72.60;;;;;;5075442;28;20125;-14
2023/01/14 08:20:14;;;;;;;0.65;0.30;;;17.70;73.30;;;;;;5070650;28;20139;-15
2023/01/14 08:22:40;;;;;;;0.50;0.38;;;17.70;73.00;;;;;;5073776;28;20043;-17
2023/01/14 08:25:06;;;;;;;0.90;0.35;;;17.70;73.30;;;;;;5066877;28;20460;-14
2023/01/14 08:27:31;;;;;;;0.73;0.40;;;17.60;73.40;;;;;;5077402;28;20049;-17
2023/01/14 08:29:57;;;;;;;0.47;0.25;;;17.70;73.40;;;;;;5067574;28;20075;-17
2023/01/14 08:32:23;;;;;;;0.80;0.30;;;17.70;73.40;;;;;;5067039;28;20064;-15
2023/01/14 08:34:49;;;;;;;0.47;0.25;;;17.70;73.40;;;;;;5077504;28;20051;-15
2023/01/14 08:37:14;;;;;;;1.05;0.20;;;17.70;73.40;;;;;;5074668;28;20406;-17
2023/01/14 08:39:40;;;;;;;0.95;0.32;;;17.80;73.10;;;;;;5072863;28;20083;-22
2023/01/14 08:42:05;;;;;;;0.95;0.32;;;17.80;72.80;;;;;;5068752;28;20044;-16
2023/01/14 08:44:31;;;;;;;0.28;0.25;;;17.80;73.50;;;;;;5068125;28;20728;-31
2023/01/14 08:46:56;;;;;;;0.30;0.25;;;17.70;73.20;;;;;;5075240;28;20048;-16
2023/01/14 08:49:23;;;;;;;0.57;0.40;;;17.70;73.20;;;;;;5067154;28;20052;-16
2023/01/14 08:51:49;;;;;;;1.95;0.40;;;17.70;74.00;;;;;;5071923;28;20032;-17
2023/01/14 08:54:14;;;;;;;1.38;0.60;;;17.80;73.20;;;;;;5071384;28;20553;-15
2023/01/14 08:56:40;;;;;;;0.95;0.43;;;17.70;73.20;;;;;;5075728;28;20132;-16
2023/01/14 08:59:06;;;;;;;0.60;0.32;;;17.80;73.20;;;;;;5070249;28;20118;-16
2023/01/14 09:01:31;;;;;;;1.20;0.40;;;17.70;73.30;;;;;;5079210;28;20043;-18
2023/01/14 09:04:00;;;;;;;0.20;0.20;;;17.70;73.30;;;;;;5067459;28;20071;-13
2023/01/14 09:06:25;;;;;;;1.40;0.40;;;17.70;73.10;;;;;;5071283;28;20801;-16
2023/01/14 09:17:10;;;;;;;0.60;0.20;;;17.80;73.20;;;;;;5069120;28;20044;-15
2023/01/14 09:19:53;;;;;;;0.65;0.30;;;17.70;73.00;;;;;;5066524;28;20047;-17
2023/01/14 09:22:24;;;;;;;2.53;0.30;;;17.70;73.20;;;;;;5062872;28;20024;-17
2023/01/14 09:24:50;;;;;;;0.88;0.43;;;17.70;72.90;;;;;;5061012;28;20036;-16
2023/01/14 09:27:15;;;;;;;1.10;0.70;;;17.80;72.80;;;;;;5078368;28;20098;-14
2023/01/14 09:29:41;;;;;;;0.98;0.47;;;17.80;72.70;;;;;;5080193;28;20409;-17
2023/01/14 09:32:09;;;;;;;1.70;0.55;;;17.80;72.50;;;;;;5078046;28;20028;-13
2023/01/14 09:34:34;;;;;;;0.43;0.30;;;17.80;72.40;;;;;;5081267;28;20104;-23
2023/01/14 09:37:00;;;;;;;0.52;0.30;;;17.80;72.40;;;;;;5077463;28;20052;-20
2023/01/14 09:39:26;;;;;;;1.33;0.55;;;17.80;72.30;;;;;;5078036;28;20040;-14
2023/01/14 09:41:57;;;;;;;0.65;0.45;;;17.80;72.40;;;;;;5083091;28;20028;-13
2023/01/14 09:44:23;;;;;;;2.30;0.35;;;17.80;72.10;;;;;;5062928;28;20063;-15
2023/01/14 09:46:48;;;;;;;0.70;0.35;;;17.80;72.30;;;;;;5074211;28;20041;-15
2023/01/14 09:49:16;;;;;;;0.47;0.30;;;17.80;72.30;;;;;;5074418;28;20056;-16
2023/01/14 09:51:57;;;;;;;0.63;0.30;;;17.80;72.40;;;;;;5060188;28;20020;-14
2023/01/14 09:54:22;;;;;;;0.82;0.50;;;17.80;72.20;;;;;;5075679;28;20044;-14
2023/01/14 09:57:11;;;;;;;0.70;0.30;;;17.80;72.10;;;;;;5078286;28;20050;-15
2023/01/14 09:59:50;;;;;;;1.15;0.30;;;17.80;72.00;;;;;;5079621;28;20455;-16
2023/01/14 10:02:24;;;;;;;1.48;0.40;;;17.80;72.00;;;;;;5062321;28;20032;-23
2023/01/14 10:05:10;;;;;;;0.35;0.20;;;17.80;72.00;;;;;;5082384;28;20101;-16
2023/01/14 10:07:35;;;;;;;0.47;0.20;;;17.70;72.60;;;;;;5054324;28;20050;-13
2023/01/14 10:10:01;;;;;;;0.75;0.32;;;17.80;72.70;;;;;;5081271;28;20045;-13
2023/01/14 10:12:35;;;;;;;0.73;0.57;;;17.80;72.40;;;;;;5080327;28;20044;-14
2023/01/14 10:15:29;;;;;;;1.55;0.20;;;17.80;72.50;;;;;;5063288;28;20516;-14
2023/01/14 10:17:56;;;;;;;;;;;17.80;72.30;;;;;;5075099;28;20032;-15
2023/01/14 10:20:47;;;;;;;2.42;0.40;;;17.80;72.40;;;;;;5074040;28;19908;-15
2023/01/14 10:23:18;;;;;;;0.73;0.50;;;17.90;72.30;;;;;;5062172;28;20398;-13
2023/01/14 10:25:52;;;;;;;0.90;0.70;;;17.90;72.30;;;;;;5071789;28;20040;-15
2023/01/14 10:28:27;;;;;;;2.80;0.50;;;17.80;72.40;;;;;;5073070;28;20041;-17
2023/01/14 10:30:53;;;;;;;1.15;0.52;;;17.70;72.60;;;;;;5038951;28;20101;-13
2023/01/14 10:33:19;;;;;;;5.63;0.40;;;17.60;72.80;;;;;;4717191;28;10000331;-27
2023/01/14 10:35:48;;;;;;;1.33;0.60;;;17.60;73.50;;;;;;5073199;28;20052;-13
2023/01/14 10:38:19;;;;;;;2.47;0.50;;;17.70;73.00;;;;;;5068665;28;20036;-13
2023/01/14 10:40:45;;;;;;;0.30;0.30;;;17.70;72.90;;;;;;5066345;28;20051;-14
2023/01/14 10:43:20;;;;;;;2.47;0.52;;;17.70;73.10;;;;;;5076522;28;20064;-15
2023/01/14 10:45:45;;;;;;;1.88;0.52;;;17.60;73.10;;;;;;5070265;28;20048;-14
2023/01/14 10:48:13;;;;;;;1.70;0.30;;;17.70;73.00;;;;;;5064259;28;20055;-15
2023/01/14 10:50:40;;;;;;;1.00;0.68;;;17.80;72.80;;;;;;5040550;28;20061;-14
2023/01/14 10:53:24;;;;;;;1.17;0.32;;;17.70;72.80;;;;;;5077563;28;20040;-15
2023/01/14 10:56:00;;;;;;;4.90;0.50;;;17.80;72.40;;;;;;5059135;28;23932;-16
2023/01/14 10:58:35;;;;;;;2.28;0.25;;;17.80;72.80;;;;;;5055248;28;20501;-14
2023/01/14 11:01:05;;;;;;;1.60;0.30;;;17.80;72.90;;;;;;5066809;28;20412;-13
2023/01/14 11:03:41;;;;;;;5.07;0.50;;;17.70;72.90;;;;;;5052656;28;20532;-16
2023/01/14 11:06:16;;;;;;;2.10;0.57;;;17.70;73.00;;;;;;5052482;28;20053;-13
2023/01/14 11:08:50;;;;;;;1.55;0.50;;;17.80;72.80;;;;;;5072782;28;20532;-15
2023/01/14 11:11:20;;;;;;;1.20;0.50;;;17.80;72.70;;;;;;5072746;28;20087;-15
2023/01/14 11:13:48;;;;;;;1.00;0.40;;;17.80;72.50;;;;;;5051945;28;20144;-13
2023/01/14 11:16:25;;;;;;;1.33;0.28;;;17.80;72.70;;;;;;5038511;28;20040;-14
2023/01/14 11:18:59;;;;;;;2.45;0.50;;;17.90;72.50;;;;;;5064311;28;20052;-15
2023/01/14 11:21:26;;;;;;;1.65;0.50;;;17.80;72.50;;;;;;5052218;28;20056;-24
2023/01/14 11:24:22;;;;;;;1.25;0.30;;;17.80;72.80;;;;;;5042377;28;20106;-14
2023/01/14 11:26:47;;;;;;;0.35;0.20;;;17.80;72.80;;;;;;5055137;28;20651;-17
2023/01/14 11:29:22;;;;;;;1.25;0.30;;;18.00;72.50;;;;;;5055343;28;20131;-16
2023/01/14 11:31:50;;;;;;;2.58;0.40;;;17.90;72.50;;;;;;5040282;28;20063;-16
2023/01/14 11:34:32;;;;;;;0.57;0.40;;;18.00;72.50;;;;;;5054639;28;20126;-17
2023/01/14 11:37:08;;;;;;;1.42;0.30;;;18.00;72.50;;;;;;5043300;28;20141;-14
2023/01/14 11:39:34;;;;;;;1.55;0.45;;;18.10;72.50;;;;;;5051610;28;20059;-14
2023/01/14 11:42:02;;;;;;;0.43;0.40;;;18.20;72.40;;;;;;5044336;28;20028;-12
2023/01/14 11:44:28;;;;;;;0.68;0.30;;;18.10;72.60;;;;;;5034009;28;20433;-14
2023/01/14 11:47:14;;;;;;;0.50;0.32;;;18.10;72.50;;;;;;5040298;28;20130;-14
2023/01/14 11:49:40;;;;;;;0.57;0.32;;;18.10;72.60;;;;;;5060379;28;20047;-14
2023/01/14 11:52:15;;;;;;;0.50;0.25;;;18.00;72.50;;;;;;5070594;28;20048;-14
2023/01/14 11:54:40;;;;;;;1.30;0.60;;;17.90;72.90;;;;;;5052685;28;20526;-13
2023/01/14 11:57:15;;;;;;;1.67;0.20;;;17.90;73.00;;;;;;5070612;28;20045;-14
2023/01/14 11:59:41;;;;;;;0.35;0.25;;;17.90;72.90;;;;;;5070955;28;20044;-14
2023/01/14 12:02:28;;;;;;;0.70;0.30;;;17.90;73.20;;;;;;5054713;28;20089;-14
2023/01/14 12:05:06;;;;;;;0.38;0.25;;;17.80;73.50;;;;;;5071692;28;20039;-13
2023/01/14 12:07:41;;;;;;;0.40;0.30;;;17.80;73.50;;;;;;5060921;28;20055;-17
2023/01/14 12:10:13;;;;;;;0.32;0.20;;;18.00;73.00;;;;;;5042819;28;20036;-16
2023/01/14 12:18:22;;;;;;;0.50;0.20;;;18.00;73.30;;;;;;5068131;28;20520;-14
2023/01/14 12:20:48;;;;;;;0.80;0.50;;;18.20;72.40;;;;;;5047973;28;20028;-19
2023/01/14 12:23:16;;;;;;;0.93;0.43;;;18.10;73.00;;;;;;5071060;28;20035;-17
2023/01/14 12:25:46;;;;;;;6.28;0.70;;;18.20;73.80;;;;;;5047022;28;20040;-14
2023/01/14 12:28:29;;;;;;;0.90;0.60;;;18.10;73.30;;;;;;5066189;28;20126;-16
2023/01/14 12:31:11;;;;;;;1.05;0.40;;;18.10;73.40;;;;;;5058099;28;20040;-14
2023/01/14 12:33:49;;;;;;;0.52;0.40;;;18.20;73.40;;;;;;5048277;28;20170;-19
2023/01/14 12:36:20;;;;;;;2.35;0.30;;;18.10;74.20;;;;;;5064597;28;20440;-15
2023/01/14 12:47:39;;;;;;;1.65;0.50;;;18.20;73.10;;;;;;5066662;28;20070;-16
2023/01/14 12:50:08;;;;;;;0.70;0.50;;;18.10;73.40;;;;;;5070611;28;20044;-13
2023/01/14 12:52:35;;;;;;;0.40;0.28;;;18.20;73.20;;;;;;5069883;28;20105;-14
2023/01/14 12:55:01;;;;;;;0.85;0.30;;;18.10;73.10;;;;;;5046734;28;20045;-15
2023/01/14 12:57:27;;;;;;;0.20;0.20;;;18.20;73.10;;;;;;5059436;28;20037;-13
2023/01/14 13:00:06;;;;;;;0.52;0.40;;;18.10;73.20;;;;;;5064358;28;20043;-14
2023/01/14 13:02:38;;;;;;;0.40;0.30;;;18.10;73.50;;;;;;5038069;28;20128;-13
2023/01/14 13:05:05;;;;;;;0.32;0.30;;;18.10;73.60;;;;;;5071478;28;20573;-15
2023/01/14 13:07:33;;;;;;;3.67;0.40;;;18.00;73.60;;;;;;5056970;28;20096;-13
2023/01/14 13:10:00;;;;;;;1.90;0.40;;;17.90;74.60;;;;;;5067369;28;20044;-13
2023/01/14 13:12:27;;;;;;;0.50;0.30;;;17.90;74.00;;;;;;5045151;28;20049;-16
2023/01/14 13:14:54;;;;;;;0.47;0.30;;;18.10;73.40;;;;;;5064429;28;20044;-15
2023/01/14 13:17:33;;;;;;;0.77;0.47;;;18.10;73.10;;;;;;5058069;28;20546;-17
2023/01/14 13:20:02;;;;;;;0.40;0.30;;;18.10;73.30;;;;;;5056217;28;20478;-14
2023/01/14 13:22:46;;;;;;;0.63;0.30;;;18.10;73.00;;;;;;5044120;28;20115;-13
2023/01/14 13:25:32;;;;;;;0.80;0.20;;;18.10;73.10;;;;;;5065076;28;20064;-21
2023/01/14 13:28:00;;;;;;;0.35;0.30;;;18.20;72.80;;;;;;5062628;28;20121;-16
2023/01/14 13:30:25;;;;;;;1.67;0.30;;;18.30;72.50;;;;;;5063371;28;20048;-25
2023/01/14 13:33:20;;;;;;;0.38;0.30;;;18.20;73.00;;;;;;5073191;28;20097;-13
2023/01/14 13:36:10;;;;;;;0.38;0.25;;;18.20;73.20;;;;;;5060272;28;20048;-14
2023/01/14 13:38:39;;;;;;;1.92;0.63;;;18.20;73.20;;;;;;5060794;28;20044;-13
2023/01/14 13:41:07;;;;;;;0.68;0.32;;;18.20;73.40;;;;;;5063287;28;20072;-14
2023/01/14 13:43:53;;;;;;;0.50;0.25;;;18.00;73.90;;;;;;5056072;28;20052;-17
2023/01/14 13:46:22;;;;;;;0.20;0.20;;;17.90;74.10;;;;;;5032374;28;20053;-14